Data for 10/07/2016

Time Sea-Level Adjusted Pressure Absolute Pressure Temperature Relative Humidity Dew Point   
(mb) (inHg) (mb) (inHg) (C) (F) (%) (C) (F)
00:05 1023 30.21 852 25.16 2.9 37.2 71 -1.9 28.5
00:10 1023 30.21 852 25.16 2.8 37.1 72 -1.8 28.8
00:15 1023 30.21 852 25.16 2.9 37.1 72 -1.7 28.9
00:20 1023 30.21 852 25.16 2.8 37 73 -1.6 29.1
00:25 1023 30.21 852 25.16 2.5 36.6 74 -1.7 29
00:30 1023 30.21 852 25.16 2.5 36.5 74 -1.7 29
00:35 1023 30.21 852 25.16 2.4 36.4 74 -1.7 29
00:40 1023 30.21 852 25.16 2.6 36.6 74 -1.7 29
00:45 1023 30.21 852 25.16 2.8 37.1 72 -1.7 28.9
00:50 1023 30.21 852 25.16 2.9 37.2 72 -1.7 29
00:55 1023 30.21 852 25.16 2.7 36.9 74 -1.5 29.4
01:00 1023 30.21 852 25.16 2.3 36.1 77 -1.4 29.5
01:05 1023 30.21 852 25.16 2.1 35.8 76 -1.7 28.9
01:10 1023 30.21 852 25.16 2.3 36.1 75 -1.8 28.8
01:15 1023 30.21 852 25.16 2.5 36.4 73 -1.9 28.6
01:20 1023 30.21 852 25.16 2.6 36.6 72 -2 28.4
01:25 1023 30.21 852 25.16 2.5 36.5 73 -1.9 28.7
01:30 1023 30.21 852 25.16 2.3 36.1 74 -1.9 28.6
01:35 1023 30.21 852 25.16 2.1 35.7 75 -1.9 28.6
01:40 1023 30.21 852 25.16 1.8 35.2 77 -1.9 28.6
01:45 1023 30.21 852 25.16 1.7 35 76 -2.1 28.2
01:50 1023 30.21 852 25.16 1.8 35.3 74 -2.3 27.9
01:55 1023 30.21 852 25.16 2 35.6 74 -2.2 28.1
02:00 1023 30.21 852 25.16 2 35.5 75 -2.1 28.3
02:05 1023 30.21 852 25.16 1.8 35.2 75 -2.2 28
02:10 1023 30.21 852 25.16 1.7 35.1 75 -2.2 28
02:15 1023 30.21 852 25.16 1.7 35.1 75 -2.2 28
02:20 1023 30.21 852 25.16 1.8 35.2 75 -2.2 28
02:25 1023 30.21 852 25.16 1.5 34.8 77 -2.1 28.2
02:30 1023 30.21 852 25.16 1.3 34.3 77 -2.3 27.9
02:35 1023 30.21 852 25.16 1.1 34 78 -2.3 27.9
02:40 1023 30.21 852 25.16 1.1 34.1 77 -2.5 27.6
02:45 1023 30.21 852 25.16 1.4 34.6 75 -2.5 27.5
02:50 1023 30.21 852 25.16 1.6 34.8 75 -2.4 27.6
02:55 1023 30.21 852 25.16 1.8 35.2 74 -2.3 27.9
03:00 1023 30.21 852 25.16 1.7 35.1 75 -2.3 27.8
03:05 1023 30.21 852 25.16 1.8 35.2 74 -2.4 27.7
03:10 1023 30.21 852 25.16 1.9 35.5 73 -2.4 27.6
03:15 1023 30.21 852 25.16 1.9 35.4 74 -2.2 28
03:20 1023 30.21 852 25.16 1.7 35.1 73 -2.5 27.5
03:25 1023 30.21 852 25.16 1.9 35.5 73 -2.4 27.7
03:30 1023 30.21 852 25.16 1.8 35.3 75 -2.2 28
03:35 1023 30.21 852 25.16 1.5 34.7 76 -2.3 27.8
03:40 1023 30.21 852 25.16 1.3 34.3 77 -2.3 27.8
03:45 1023 30.21 852 25.16 1.1 34 77 -2.4 27.7
03:50 1023 30.21 852 25.16 1.2 34.1 77 -2.4 27.6
03:55 1023 30.21 852 25.16 1.1 34 78 -2.4 27.7
04:00 1023 30.21 852 25.16 1 33.8 77 -2.5 27.5
04:05 1023 30.21 852 25.16 1.2 34.1 76 -2.7 27.2
04:10 1023 30.21 852 25.16 1.3 34.3 76 -2.5 27.5
04:15 1023 30.21 852 25.16 1.2 34.2 76 -2.6 27.4
04:20 1023 30.21 852 25.16 1.2 34.2 76 -2.6 27.4
04:25 1023 30.21 852 25.16 1.1 34 76 -2.6 27.3
04:30 1023 30.21 852 25.16 1.1 33.9 77 -2.6 27.4
04:35 1023 30.21 852 25.16 1 33.8 77 -2.6 27.3
04:40 1023 30.21 852 25.16 0.9 33.7 77 -2.6 27.3
04:45 1023 30.21 852 25.16 0.9 33.6 77 -2.6 27.3
04:50 1023 30.21 852 25.16 0.8 33.5 78 -2.7 27.2
04:55 1023 30.21 852 25.16 0.7 33.2 78 -2.7 27.1
05:00 1023 30.21 852 25.16 0.7 33.3 77 -2.8 27
05:05 1023 30.21 852 25.16 0.9 33.6 77 -2.7 27.1
05:10 1023 30.21 852 25.16 1 33.8 76 -2.7 27.1
05:15 1023 30.21 852 25.16 1.1 34 75 -2.8 27
05:20 1023 30.21 852 25.16 1.2 34.2 75 -2.8 27
05:25 1023 30.21 852 25.16 1.2 34.2 75 -2.7 27.2
05:30 1022 30.18 852 25.16 1.4 34.5 74 -2.8 27
05:35 1022 30.18 852 25.16 1.4 34.5 74 -2.8 27
05:40 1022 30.18 852 25.16 1.3 34.4 74 -2.7 27.1
05:45 1022 30.18 852 25.16 1.2 34.1 75 -2.7 27.1
05:50 1022 30.18 852 25.16 1 33.9 75 -2.8 26.9
05:55 1022 30.18 852 25.16 1.1 33.9 76 -2.7 27.1
06:00 1022 30.18 852 25.16 0.9 33.7 76 -2.8 26.9
06:05 1022 30.18 852 25.16 0.9 33.6 76 -2.8 26.9
06:10 1022 30.18 852 25.16 0.9 33.7 75 -2.9 26.7
06:15 1022 30.18 852 25.16 1.1 33.9 75 -2.9 26.7
06:20 1022 30.18 852 25.16 1.2 34.1 74 -3 26.6
06:25 1022 30.18 852 25.16 1.3 34.3 74 -2.9 26.8
06:30 1022 30.18 852 25.16 1.4 34.5 73 -3 26.6
06:35 1022 30.18 852 25.16 1.5 34.7 73 -2.8 27
06:40 1022 30.18 852 25.16 1.4 34.4 74 -2.8 26.9
06:45 1022 30.18 852 25.16 1.1 34.1 74 -2.9 26.8
06:50 1022 30.18 852 25.16 1.3 34.3 73 -3.1 26.4
06:55 1022 30.18 852 25.16 1.5 34.7 72 -3 26.5
07:00 1022 30.18 852 25.16 1.4 34.5 72 -3 26.5
07:05 1022 30.18 852 25.16 1.3 34.4 73 -3 26.6
07:10 1022 30.18 851 25.13 1.1 34.1 74 -3 26.5
07:15 1022 30.18 851 25.13 1.1 34 74 -3.1 26.5
07:20 1022 30.18 851 25.13 1.1 33.9 74 -3.1 26.4
07:25 1022 30.18 851 25.13 1.1 34 74 -3.1 26.5
07:30 1022 30.18 851 25.13 1.1 34 74 -3.1 26.4
07:35 1022 30.18 851 25.13 1.2 34.2 72 -3.3 26.1
07:40 1022 30.18 851 25.13 1.5 34.7 70 -3.3 26
07:45 1022 30.18 851 25.13 1.7 35 70 -3.2 26.2
07:50 1022 30.18 851 25.13 1.8 35.3 69 -3.2 26.2
07:55 1022 30.18 851 25.13 1.9 35.5 69 -3.2 26.2
08:00 1022 30.18 851 25.13 2 35.6 69 -3.1 26.4
08:05 1022 30.18 851 25.13 2.1 35.8 68 -3.1 26.4
08:10 1022 30.18 851 25.13 2.1 35.8 68 -3.2 26.2
08:15 1022 30.18 851 25.13 2.2 36 68 -3.1 26.4
08:20 1022 30.18 851 25.13 2.4 36.3 67 -3.2 26.2
08:25 1022 30.18 851 25.13 2.7 36.8 65 -3.2 26.3
08:30 1022 30.18 851 25.13 3 37.3 65 -3.1 26.5
08:35 1022 30.18 851 25.13 3.2 37.8 64 -3 26.6
08:40 1022 30.18 851 25.13 3.3 38 64 -2.9 26.8
08:45 1022 30.18 851 25.13 3.4 38.2 63 -3 26.7
08:50 1022 30.18 851 25.13 3.8 38.8 61 -3.2 26.3
08:55 1022 30.18 851 25.13 4 39.2 61 -2.9 26.8
09:00 1022 30.18 851 25.13 4.3 39.7 59 -3 26.7
09:05 1022 30.18 851 25.13 4.6 40.2 59 -2.8 26.9
09:10 1022 30.18 851 25.13 4.4 40 60 -2.6 27.3
09:15 1022 30.18 851 25.13 4.5 40.1 59 -2.7 27.1
09:20 1022 30.18 851 25.13 5 41.1 59 -2.3 27.8
09:25 1022 30.18 851 25.13 5.8 42.4 56 -2.4 27.7
09:30 1022 30.18 851 25.13 5.7 42.2 56 -2.4 27.7
09:35 1022 30.18 851 25.13 6.4 43.5 53 -2.5 27.5
09:40 1022 30.18 851 25.13 7 44.6 51 -2.5 27.5
09:45 1022 30.18 851 25.13 7.7 45.8 50 -2.2 28
09:50 1022 30.18 851 25.13 7.7 45.9 50 -2.1 28.2
09:55 1022 30.18 851 25.13 7.6 45.7 48 -2.6 27.4
10:00 1022 30.18 851 25.13 7.6 45.6 50 -2.1 28.2
10:05 1022 30.18 851 25.13 7.3 45.2 50 -2.5 27.5
10:10 1022 30.18 851 25.13 7.6 45.7 49 -2.4 27.8
10:15 1022 30.18 851 25.13 7.8 46 50 -2 28.3
10:20 1022 30.18 851 25.13 8.1 46.6 50 -1.8 28.8
10:25 1022 30.18 851 25.13 8.3 47 49 -1.9 28.7
10:30 1022 30.18 851 25.13 8.7 47.6 47 -2 28.4
10:35 1022 30.18 851 25.13 9.1 48.4 48 -1.3 29.7
10:40 1022 30.18 851 25.13 9.1 48.5 47 -1.6 29.2
10:45 1022 30.18 851 25.13 9.2 48.5 44 -2.3 27.9
10:50 1022 30.18 851 25.13 9.5 49 45 -1.8 28.8
10:55 1022 30.18 851 25.13 10.1 50.2 41 -2.5 27.5
11:00 1022 30.18 851 25.13 10.6 51.1 38 -2.9 26.7
11:05 1022 30.18 851 25.13 11.1 52 37 -2.9 26.9
11:10 1022 30.18 851 25.13 11.4 52.4 39 -2.2 28.1
11:15 1022 30.18 851 25.13 11.6 52.9 36 -3 26.6
11:20 1022 30.18 851 25.13 12.2 54 37 -2 28.3
11:25 1022 30.18 851 25.13 12.3 54.1 37 -2 28.3
11:30 1022 30.18 851 25.13 11.7 53 38 -2.2 28.1
11:35 1022 30.18 851 25.13 10.9 51.6 39 -2.4 27.7
11:40 1021 30.15 851 25.13 11.1 52 38 -2.6 27.4
11:45 1021 30.15 851 25.13 11 51.7 39 -2.4 27.7
11:50 1021 30.15 851 25.13 11.1 51.9 40 -2.1 28.2
11:55 1021 30.15 851 25.13 11.2 52.1 39 -2.3 27.9
12:00 1021 30.15 851 25.13 11.4 52.4 38 -2.3 27.8
12:05 1021 30.15 850 25.1 11.5 52.7 37 -2.6 27.3
12:10 1021 30.15 850 25.1 11.8 53.2 35 -3 26.7
12:15 1021 30.15 850 25.1 11.7 53 35 -3.1 26.4
12:20 1021 30.15 850 25.1 11.4 52.6 35 -3.3 26.1
12:25 1021 30.15 850 25.1 11.7 53.1 35 -3.3 26
12:30 1021 30.15 850 25.1 12.1 53.9 34 -3.1 26.4
12:35 1021 30.15 850 25.1 12.2 54 33 -3.6 25.6
12:40 1021 30.15 850 25.1 12.5 54.6 33 -3.3 26
12:45 1021 30.15 850 25.1 12.4 54.3 33 -3.3 26.1
12:50 1021 30.15 850 25.1 12.6 54.7 34 -2.9 26.8
12:55 1021 30.15 850 25.1 12.8 55 32 -3.3 26.1
13:00 1021 30.15 850 25.1 13.4 56.1 32 -2.8 26.9
13:05 1021 30.15 850 25.1 13.2 55.8 34 -2.3 27.8
13:10 1021 30.15 850 25.1 13.5 56.3 32 -2.7 27.1
13:15 1021 30.15 850 25.1 13.2 55.7 32 -3 26.6
13:20 1021 30.15 850 25.1 13.1 55.5 32 -3 26.6
13:25 1021 30.15 850 25.1 12.8 55 35 -2.4 27.7
13:30 1021 30.15 850 25.1 12.8 55.1 34 -2.7 27.1
13:35 1021 30.15 850 25.1 12.5 54.5 36 -2.2 28.1
13:40 1021 30.15 850 25.1 12.6 54.7 35 -2.5 27.5
13:45 1021 30.15 850 25.1 12.6 54.7 35 -2.2 28
13:50 1021 30.15 850 25.1 12.4 54.3 35 -2.5 27.5
13:55 1021 30.15 850 25.1 12.4 54.3 37 -1.9 28.7
14:00 1020 30.12 850 25.1 12.3 54.2 37 -1.7 28.9
14:05 1020 30.12 850 25.1 12.3 54.2 38 -1.6 29.1
14:10 1020 30.12 850 25.1 12.4 54.2 35 -2.4 27.6
14:15 1020 30.12 850 25.1 12.2 54 37 -2 28.4
14:20 1020 30.12 850 25.1 12.2 53.9 38 -1.6 29.1
14:25 1020 30.12 849 25.07 12.2 53.9 39 -1.2 29.8
14:30 1020 30.12 850 25.1 12.1 53.7 43 0 32
14:35 1020 30.12 850 25.1 11.7 53.1 43 -0.5 31
14:40 1020 30.12 849 25.07 11.7 53.1 44 -0.1 31.7
14:45 1020 30.12 849 25.07 11.8 53.2 45 0.1 32.2
14:50 1020 30.12 849 25.07 11.9 53.4 43 -0.2 31.7
14:55 1020 30.12 849 25.07 12 53.7 44 0.1 32.1
15:00 1020 30.12 849 25.07 12 53.6 45 0.6 33
15:05 1020 30.12 849 25.07 11.6 52.8 47 0.8 33.5
15:10 1020 30.12 849 25.07 11.5 52.6 47 0.7 33.3
15:15 1020 30.12 849 25.07 11.5 52.7 47 0.6 33.1
15:20 1020 30.12 849 25.07 11.5 52.7 46 0.4 32.7
15:25 1020 30.12 849 25.07 11.4 52.6 47 0.5 32.9
15:30 1020 30.12 849 25.07 11.6 52.8 45 0.2 32.3
15:35 1020 30.12 849 25.07 11.7 53.1 45 0.3 32.5
15:40 1020 30.12 849 25.07 11.9 53.3 46 0.5 32.9
15:45 1020 30.12 849 25.07 11.9 53.5 45 0.5 32.8
15:50 1020 30.12 849 25.07 12.1 53.7 44 0.1 32.2
15:55 1020 30.12 849 25.07 12 53.7 44 0.3 32.5
16:00 1020 30.12 849 25.07 12.1 53.8 44 0.4 32.7
16:05 1020 30.12 849 25.07 12.2 53.9 44 0.5 32.9
16:10 1020 30.12 849 25.07 12.3 54.1 45 0.6 33.1
16:15 1020 30.12 849 25.07 12.5 54.4 44 0.6 33
16:20 1020 30.12 849 25.07 12.3 54.2 44 0.5 33
16:25 1020 30.12 849 25.07 12.3 54.1 43 0.1 32.2
16:30 1020 30.12 849 25.07 12.3 54.1 43 0 32
16:35 1020 30.12 849 25.07 12.3 54.2 43 0 32
16:40 1020 30.12 849 25.07 12.3 54.1 43 0.2 32.4
16:45 1020 30.12 849 25.07 12.2 54 43 0.1 32.1
16:50 1020 30.12 849 25.07 12.2 54 43 0.1 32.1
16:55 1020 30.12 849 25.07 12.2 53.9 44 0.4 32.8
17:00 1020 30.12 849 25.07 12.2 53.9 44 0.3 32.6
17:05 1020 30.12 849 25.07 12.2 54 43 0.1 32.2
17:10 1020 30.12 849 25.07 12.3 54.1 43 0 32.1
17:15 1020 30.12 849 25.07 12.3 54.1 43 0.1 32.2
17:20 1020 30.12 849 25.07 12.2 53.9 43 0.1 32.2
17:25 1019 30.09 849 25.07 12.1 53.8 45 0.5 32.9
17:30 1019 30.09 849 25.07 12.1 53.7 44 0.3 32.6
17:35 1020 30.12 849 25.07 12.1 53.7 45 0.5 32.8
17:40 1020 30.12 849 25.07 12.1 53.8 44 0.3 32.6
17:45 1020 30.12 849 25.07 12.2 54 43 0.1 32.2
17:50 1020 30.12 849 25.07 12.2 54 43 -0.1 31.9
17:55 1020 30.12 849 25.07 12.3 54.1 43 -0 32
18:00 1020 30.12 849 25.07 12.2 54 43 -0 32
18:05 1020 30.12 849 25.07 12.2 54 43 0.1 32.2
18:10 1020 30.12 849 25.07 12.2 54 44 0.3 32.6
18:15 1020 30.12 849 25.07 12.1 53.8 45 0.5 33
18:20 1019 30.09 849 25.07 12.1 53.7 45 0.6 33
18:25 1019 30.09 849 25.07 12.1 53.8 45 0.6 33.1
18:30 1019 30.09 849 25.07 12.1 53.9 45 0.7 33.2
18:35 1019 30.09 849 25.07 12.1 53.9 43 0.1 32.3
18:40 1019 30.09 849 25.07 12.2 53.9 44 0.3 32.5
18:45 1019 30.09 849 25.07 12.5 54.4 40 -0.7 30.7
18:50 1019 30.09 849 25.07 12.7 54.9 40 -0.4 31.3
18:55 1019 30.09 849 25.07 12.7 54.8 42 0 32
19:00 1019 30.09 849 25.07 12.6 54.6 43 0.4 32.7
19:05 1019 30.09 849 25.07 12.3 54.2 43 0.1 32.1
19:10 1019 30.09 849 25.07 12.4 54.2 42 -0 32
19:15 1019 30.09 849 25.07 12.3 54.2 42 -0.2 31.6
19:20 1019 30.09 849 25.07 12.4 54.2 42 -0.2 31.6
19:25 1019 30.09 849 25.07 12.4 54.3 42 -0.2 31.6
19:30 1019 30.09 849 25.07 12.4 54.4 41 -0.3 31.4
19:35 1019 30.09 848 25.04 12.4 54.4 41 -0.3 31.5
19:40 1019 30.09 848 25.04 12.4 54.2 42 -0.1 31.7
19:45 1019 30.09 848 25.04 12.2 54 42 -0.4 31.3
19:50 1019 30.09 848 25.04 12.2 53.9 41 -0.6 31
19:55 1019 30.09 848 25.04 12.1 53.8 43 -0.2 31.7
20:00 1019 30.09 849 25.07 11.8 53.2 44 -0.2 31.7
20:05 1019 30.09 849 25.07 11.5 52.7 45 0.1 32.2
20:10 1019 30.09 849 25.07 11.4 52.5 43 -0.7 30.7
20:15 1019 30.09 849 25.07 11.7 53 44 -0.2 31.6
20:20 1020 30.12 849 25.07 11.4 52.5 45 -0.1 31.8
20:25 1020 30.12 849 25.07 11.2 52.1 46 -0.1 31.9
20:30 1020 30.12 849 25.07 11 51.7 46 -0 31.9
20:35 1019 30.09 849 25.07 10.8 51.4 48 0.2 32.3
20:40 1019 30.09 849 25.07 10.7 51.2 47 -0.1 31.8
20:45 1019 30.09 849 25.07 10.9 51.6 47 -0 31.9
20:50 1019 30.09 849 25.07 11.2 52.1 46 -0 32
20:55 1019 30.09 849 25.07 11.3 52.4 45 0 32
21:00 1019 30.09 849 25.07 11.4 52.6 45 0.1 32.1
21:05 1019 30.09 849 25.07 11.6 52.8 44 -0.2 31.6
21:10 1019 30.09 849 25.07 11.8 53.3 43 -0.2 31.6
21:15 1019 30.09 849 25.07 12 53.6 43 -0.2 31.6
21:20 1019 30.09 849 25.07 12.1 53.7 43 -0.2 31.6
21:25 1019 30.09 849 25.07 12.1 53.7 42 -0.3 31.5
21:30 1020 30.12 849 25.07 12.2 53.9 42 -0.3 31.5
21:35 1020 30.12 849 25.07 12.1 53.8 43 -0 32
21:40 1020 30.12 849 25.07 12 53.7 43 -0 31.9
21:45 1020 30.12 849 25.07 12 53.7 42 -0.4 31.2
21:50 1020 30.12 849 25.07 12.2 53.9 42 -0.2 31.7
21:55 1020 30.12 849 25.07 12.1 53.8 44 0.2 32.3
22:00 1020 30.12 849 25.07 11.9 53.4 43 -0.2 31.6
22:05 1020 30.12 849 25.07 12.1 53.7 42 -0.3 31.5
22:10 1020 30.12 849 25.07 12.3 54.1 41 -0.6 31
22:15 1020 30.12 849 25.07 12.7 54.8 39 -0.7 30.7
22:20 1020 30.12 849 25.07 12.8 55.1 39 -0.6 31
22:25 1020 30.12 849 25.07 12.8 55.1 39 -0.8 30.6
22:30 1020 30.12 849 25.07 12.8 55.1 40 -0.4 31.2
22:35 1020 30.12 849 25.07 12.8 55 39 -0.6 30.8
22:40 1020 30.12 849 25.07 12.8 55.1 39 -0.7 30.7
22:45 1020 30.12 849 25.07 12.9 55.2 39 -0.6 30.9
22:50 1020 30.12 849 25.07 12.8 55 41 -0.2 31.6
22:55 1020 30.12 849 25.07 12.5 54.4 41 -0.4 31.4
23:00 1020 30.12 849 25.07 12.5 54.5 40 -0.8 30.6
23:05 1020 30.12 849 25.07 12.7 54.8 40 -0.6 30.9
23:10 1020 30.12 849 25.07 12.6 54.6 40 -0.6 31
23:15 1020 30.12 849 25.07 12.6 54.6 40 -0.7 30.8
23:20 1020 30.12 849 25.07 12.5 54.6 40 -0.6 31
23:25 1020 30.12 849 25.07 12.6 54.6 40 -0.7 30.7
23:30 1020 30.12 849 25.07 12.7 54.8 39 -0.9 30.4
23:35 1020 30.12 849 25.07 12.9 55.2 38 -1 30.2
23:40 1020 30.12 849 25.07 13 55.3 38 -0.9 30.5
23:45 1020 30.12 849 25.07 12.9 55.2 39 -0.7 30.7
23:50 1020 30.12 850 25.1 12.8 55 39 -0.8 30.6
23:55 1020 30.12 850 25.1 12.8 55 39 -0.7 30.7
24:00 1020 30.12 850 25.1 12.7 54.9 40 -0.5 31.1